Time;durP1;ratioP1;P1;durP2;ratioP2;P2;SDS_P1;SDS_P2;PMS_P1;PMS_P2;Temp;Humidity;BMP_temperature;BMP_pressure;BME280_temperature;BME280_humidity;BME280_pressure;Samples;Min_cycle;Max_cycle;Signal;HPM_P1;HPM_P2
2021/06/10 00:00:17;;;;;;;2.42;1.30;;;;;;;16.38;65.77;100743.00;5015263;28;20069;-73
2021/06/10 00:02:44;;;;;;;3.17;1.35;;;;;;;16.42;65.49;100746.31;5015335;28;20139;-73
2021/06/10 00:05:12;;;;;;;2.55;1.00;;;;;;;16.38;65.39;100753.78;5015219;28;20053;-73
2021/06/10 00:07:40;;;;;;;4.40;1.55;;;;;;;16.44;64.87;100755.13;5015328;28;20046;-73
2021/06/10 00:10:13;;;;;;;1.20;1.10;;;;;;;16.40;64.20;100748.28;5015053;28;20340;-73
2021/06/10 00:12:41;;;;;;;3.35;1.23;;;;;;;16.33;64.35;100750.56;5015239;28;20112;-73
2021/06/10 00:15:11;;;;;;;3.38;1.05;;;;;;;16.31;64.82;100755.22;5015109;28;20139;-73
2021/06/10 00:17:37;;;;;;;1.55;1.17;;;;;;;16.26;64.84;100746.63;5015191;28;20427;-73
2021/06/10 00:20:07;;;;;;;4.40;1.45;;;;;;;16.27;64.74;100757.28;5030169;28;20060;-73
2021/06/10 00:22:34;;;;;;;2.78;0.90;;;;;;;16.18;65.15;100759.81;5038849;28;20049;-74
2021/06/10 00:25:00;;;;;;;1.48;1.35;;;;;;;16.12;64.70;100761.97;5038936;28;20049;-74
2021/06/10 00:27:27;;;;;;;2.45;1.30;;;;;;;16.14;64.12;100764.56;5038508;28;20111;-73
2021/06/10 00:29:54;;;;;;;2.13;1.52;;;;;;;16.15;64.22;100756.38;5038335;28;20049;-74
2021/06/10 00:32:20;;;;;;;5.80;1.50;;;;;;;16.16;64.23;100768.00;5038856;28;20060;-73
2021/06/10 00:34:47;;;;;;;2.15;1.25;;;;;;;16.13;64.61;100762.84;5038693;28;20049;-74
2021/06/10 00:37:14;;;;;;;2.10;1.33;;;;;;;16.05;64.94;100765.25;5038429;28;20081;-73
2021/06/10 00:39:41;;;;;;;4.28;1.50;;;;;;;16.10;64.75;100752.28;5037449;28;20096;-74
2021/06/10 00:42:09;;;;;;;3.75;1.50;;;;;;;16.02;65.48;100760.97;5037355;28;20119;-73
2021/06/10 00:44:36;;;;;;;6.13;1.60;;;;;;;16.01;66.07;100753.84;5038109;28;20080;-73
2021/06/10 00:47:04;;;;;;;3.58;2.35;;;;;;;15.93;66.58;100740.09;5037114;28;20448;-73
2021/06/10 00:49:30;;;;;;;3.35;2.17;;;;;;;15.87;67.40;100753.00;5037420;28;20103;-73
2021/06/10 00:51:57;;;;;;;3.20;2.00;;;;;;;15.87;67.66;100758.38;5038366;28;20126;-73
2021/06/10 00:54:24;;;;;;;9.88;2.38;;;;;;;15.92;67.90;100751.84;5038001;28;20423;-73
2021/06/10 00:56:52;;;;;;;5.47;2.10;;;;;;;15.91;67.92;100758.19;5038056;28;20057;-73
2021/06/10 00:59:18;;;;;;;7.85;2.58;;;;;;;15.78;68.28;100744.75;5038300;28;20127;-73
2021/06/10 01:01:45;;;;;;;9.95;2.33;;;;;;;15.82;68.43;100755.19;5038231;28;20045;-73
2021/06/10 01:04:13;;;;;;;3.42;2.10;;;;;;;15.90;68.31;100765.38;5037914;28;20060;-73
2021/06/10 01:06:52;;;;;;;4.30;2.25;;;;;;;15.81;68.80;100758.88;5037834;28;20410;-73
2021/06/10 01:09:35;;;;;;;7.72;2.33;;;;;;;15.83;68.91;100764.13;5038132;28;20447;-73
2021/06/10 01:12:12;;;;;;;4.75;2.50;;;;;;;15.78;68.90;100759.06;5037355;28;20053;-73
2021/06/10 01:15:02;;;;;;;4.63;2.30;;;;;;;15.78;69.24;100759.06;5038111;28;20049;-72
2021/06/10 01:17:30;;;;;;;6.25;2.88;;;;;;;15.73;69.47;100766.63;5037957;28;20053;-74
2021/06/10 01:19:59;;;;;;;4.75;2.60;;;;;;;15.76;69.56;100761.03;5026333;28;20054;-74
2021/06/10 01:22:26;;;;;;;3.53;2.33;;;;;;;15.72;69.82;100757.72;5016778;28;20371;-74
2021/06/10 01:25:08;;;;;;;5.00;2.47;;;;;;;15.80;69.72;100759.81;5017924;28;20050;-73
2021/06/10 01:27:39;;;;;;;2.50;2.25;;;;;;;15.66;69.97;100757.28;5017415;28;20057;-74
2021/06/10 01:30:21;;;;;;;4.28;2.38;;;;;;;15.68;69.88;100755.34;5016203;28;20053;-73
2021/06/10 01:32:53;;;;;;;4.28;2.45;;;;;;;15.76;69.34;100744.88;5017911;28;20054;-75
2021/06/10 01:35:24;;;;;;;5.10;2.50;;;;;;;15.75;68.32;100740.47;5017539;28;20084;-73
2021/06/10 01:37:53;;;;;;;3.97;2.30;;;;;;;15.72;68.66;100732.63;5017612;28;20481;-73
2021/06/10 01:40:26;;;;;;;3.10;2.38;;;;;;;15.67;68.79;100729.41;5017543;28;20133;-73
2021/06/10 01:42:55;;;;;;;4.28;1.92;;;;;;;15.70;68.24;100731.88;5017843;28;20057;-73
2021/06/10 01:45:22;;;;;;;2.10;1.90;;;;;;;15.68;67.89;100731.97;5017484;28;20116;-74
2021/06/10 01:47:50;;;;;;;5.97;2.22;;;;;;;15.64;68.00;100730.50;5016467;28;20660;-73
2021/06/10 01:50:21;;;;;;;4.70;2.10;;;;;;;15.60;68.48;100735.22;5017515;28;20065;-74
2021/06/10 01:52:49;;;;;;;2.83;1.80;;;;;;;15.45;68.99;100725.59;5017487;28;20076;-74
2021/06/10 01:55:21;;;;;;;4.85;2.10;;;;;;;15.47;68.80;100731.72;5017289;28;20046;-75
2021/06/10 01:57:49;;;;;;;7.75;1.90;;;;;;;15.43;68.60;100712.25;5017735;28;20049;-74
2021/06/10 02:00:17;;;;;;;2.08;1.88;;;;;;;15.44;67.75;100708.63;5017533;28;20054;-74
2021/06/10 02:02:44;;;;;;;3.47;1.90;;;;;;;15.43;67.86;100714.09;5017006;28;20053;-74
2021/06/10 02:05:12;;;;;;;4.53;2.03;;;;;;;15.44;68.11;100715.81;5016004;28;20053;-76
2021/06/10 02:07:42;;;;;;;3.58;2.05;;;;;;;15.44;68.06;100711.31;5016907;28;20502;-74
2021/06/10 02:10:12;;;;;;;3.72;1.73;;;;;;;15.44;67.85;100705.91;5017038;28;20340;-74
2021/06/10 02:12:39;;;;;;;3.88;2.00;;;;;;;15.39;68.11;100709.91;5015954;28;20049;-74
2021/06/10 02:15:08;;;;;;;4.90;1.90;;;;;;;15.41;67.94;100707.97;5016695;28;20059;-74
2021/06/10 02:17:35;;;;;;;3.25;1.90;;;;;;;15.40;67.79;100695.47;5017247;28;20046;-74
2021/06/10 02:20:06;;;;;;;4.10;2.30;;;;;;;15.46;67.66;100706.66;5028728;28;20496;-74
2021/06/10 02:22:35;;;;;;;3.75;2.38;;;;;;;15.54;66.99;100707.94;5036730;28;20058;-74
2021/06/10 02:25:03;;;;;;;4.70;2.08;;;;;;;15.59;66.73;100709.28;5035507;28;20079;-74
2021/06/10 02:27:29;;;;;;;2.95;2.20;;;;;;;15.57;66.92;100713.06;5036338;28;20061;-74
2021/06/10 02:29:56;;;;;;;5.40;2.15;;;;;;;15.50;68.01;100701.91;5035406;28;20058;-74
2021/06/10 02:32:23;;;;;;;3.08;2.72;;;;;;;15.57;67.59;100713.94;5035582;28;20053;-74
2021/06/10 02:34:50;;;;;;;4.30;2.90;;;;;;;15.54;67.87;100707.94;5035058;28;20049;-74
2021/06/10 02:37:22;;;;;;;6.43;3.60;;;;;;;15.65;67.87;100717.91;5036121;28;20060;-74
2021/06/10 02:39:52;;;;;;;10.68;3.90;;;;;;;15.68;67.98;100720.38;5036366;28;20053;-74
2021/06/10 02:42:20;;;;;;;8.75;4.32;;;;;;;15.69;68.34;100711.31;5035722;28;20053;-74
2021/06/10 02:44:51;;;;;;;7.55;4.40;;;;;;;15.72;68.53;100719.16;5036167;28;20045;-74
2021/06/10 02:47:20;;;;;;;6.00;4.57;;;;;;;15.64;69.42;100708.09;5034977;28;20104;-74
2021/06/10 02:49:49;;;;;;;4.20;3.80;;;;;;;15.55;69.67;100718.59;5036308;28;20469;-74
2021/06/10 02:52:18;;;;;;;3.55;2.80;;;;;;;15.45;70.08;100709.44;5035928;28;20103;-74
2021/06/10 02:54:47;;;;;;;5.78;2.67;;;;;;;15.39;70.14;100704.50;5036170;28;20053;-74
2021/06/10 02:57:15;;;;;;;3.33;2.28;;;;;;;15.25;71.05;100703.69;5034759;28;20053;-74
2021/06/10 02:59:44;;;;;;;6.68;3.15;;;;;;;15.24;70.73;100711.88;5035684;28;20088;-74
2021/06/10 03:02:12;;;;;;;3.35;2.35;;;;;;;15.04;70.75;100706.09;5035830;28;20184;-74
2021/06/10 03:04:41;;;;;;;2.58;2.38;;;;;;;15.04;70.58;100701.56;5035856;28;20053;-74
2021/06/10 03:07:14;;;;;;;5.40;2.70;;;;;;;15.00;70.72;100707.28;5035874;28;20049;-74
2021/06/10 03:09:43;;;;;;;12.23;2.28;;;;;;;14.98;71.41;100707.38;5035688;28;20060;-73
2021/06/10 03:12:11;;;;;;;4.40;2.67;;;;;;;14.85;71.35;100701.16;5034487;28;20099;-73
2021/06/10 03:14:41;;;;;;;4.40;2.60;;;;;;;14.85;71.85;100711.91;5035493;28;20045;-74
2021/06/10 03:17:14;;;;;;;5.03;2.92;;;;;;;14.75;72.35;100712.56;5034549;28;20095;-73
2021/06/10 03:19:41;;;;;;;6.15;2.67;;;;;;;14.61;72.92;100705.41;5026478;28;20053;-73
2021/06/10 03:22:08;;;;;;;3.90;2.60;;;;;;;14.64;72.60;100710.59;5015910;28;20050;-74
2021/06/10 03:24:36;;;;;;;3.55;2.67;;;;;;;14.58;73.15;100704.78;5016033;28;20455;-74
2021/06/10 03:27:05;;;;;;;3.40;2.90;;;;;;;14.61;72.92;100704.56;5015237;28;20115;-73
2021/06/10 03:29:33;;;;;;;8.20;3.45;;;;;;;14.61;72.92;100699.22;5015716;28;20072;-73
2021/06/10 03:32:00;;;;;;;7.40;3.65;;;;;;;14.63;73.32;100710.69;5015626;28;20050;-74
2021/06/10 03:34:28;;;;;;;4.78;3.70;;;;;;;14.59;73.39;100717.25;5015700;28;20056;-73
2021/06/10 03:36:57;;;;;;;6.07;3.97;;;;;;;14.44;74.00;100695.00;5015455;28;20439;-74
2021/06/10 03:39:25;;;;;;;5.00;3.55;;;;;;;14.40;74.26;100694.34;5015831;28;20057;-73
2021/06/10 03:41:53;;;;;;;5.40;3.17;;;;;;;14.49;73.98;100709.81;4998882;28;20142;-74
2021/06/10 03:44:20;;;;;;;4.88;3.95;;;;;;;14.35;74.87;100697.38;5015557;28;20489;-74
2021/06/10 03:46:47;;;;;;;5.22;3.35;;;;;;;14.44;74.91;100713.81;5015665;28;20053;-74
2021/06/10 03:49:14;;;;;;;5.38;3.42;;;;;;;14.41;75.22;100712.19;5015605;28;20050;-73
2021/06/10 03:51:40;;;;;;;7.15;3.50;;;;;;;14.35;75.39;100715.28;5015581;28;20100;-73
2021/06/10 03:54:07;;;;;;;6.68;3.85;;;;;;;14.37;75.75;100713.34;5016737;28;20049;-74
2021/06/10 03:56:34;;;;;;;6.20;3.85;;;;;;;14.34;75.86;100702.81;5019289;28;20050;-73
2021/06/10 03:59:01;;;;;;;8.32;4.05;;;;;;;14.44;75.88;100709.28;5019645;28;20057;-73
2021/06/10 04:01:28;;;;;;;7.47;3.88;;;;;;;14.36;76.48;100712.50;5019209;28;20050;-73
2021/06/10 04:03:55;;;;;;;7.00;3.83;;;;;;;14.41;76.17;100714.88;5019382;28;20057;-74
2021/06/10 04:06:29;;;;;;;5.65;3.58;;;;;;;14.37;76.37;100718.72;5019479;28;20053;-73
2021/06/10 04:08:55;;;;;;;8.65;3.63;;;;;;;14.33;76.56;100711.84;5019109;28;20513;-74
2021/06/10 04:11:22;;;;;;;6.28;3.95;;;;;;;14.41;76.92;100709.50;5018401;28;20046;-74
2021/06/10 04:13:49;;;;;;;6.82;3.80;;;;;;;14.17;77.49;100675.28;5018993;28;20046;-73
2021/06/10 04:16:15;;;;;;;8.38;3.90;;;;;;;14.44;77.57;100713.81;5019322;28;20319;-73
2021/06/10 04:18:42;;;;;;;5.05;3.65;;;;;;;14.37;77.96;100708.84;5019976;28;20436;-73
2021/06/10 04:21:09;;;;;;;6.68;4.28;;;;;;;14.49;77.72;100719.72;5037701;28;20057;-72
2021/06/10 04:23:35;;;;;;;9.07;3.90;;;;;;;14.48;77.98;100721.53;5038400;28;20053;-73
2021/06/10 04:26:02;;;;;;;5.35;3.83;;;;;;;14.49;77.29;100704.44;5038877;28;20111;-72
2021/06/10 04:28:29;;;;;;;6.68;3.88;;;;;;;14.57;78.00;100716.50;5038284;28;20057;-72
2021/06/10 04:30:56;;;;;;;6.88;4.10;;;;;;;14.61;77.75;100718.00;5038507;28;20053;-74
2021/06/10 04:33:23;;;;;;;8.40;4.30;;;;;;;14.68;77.55;100716.63;5037217;28;20050;-74
2021/06/10 04:35:50;;;;;;;7.05;4.30;;;;;;;14.65;77.68;100706.06;5038368;28;20119;-73
2021/06/10 04:38:17;;;;;;;4.53;3.78;;;;;;;14.75;77.74;100707.19;5037492;28;20544;-73
2021/06/10 04:40:44;;;;;;;7.03;3.92;;;;;;;14.73;78.10;100710.91;5038423;28;20423;-74
2021/06/10 04:43:11;;;;;;;10.50;5.00;;;;;;;14.76;78.30;100708.06;5038526;28;20053;-74
2021/06/10 04:45:37;;;;;;;7.38;4.80;;;;;;;14.83;78.42;100709.34;5038243;28;20041;-73
2021/06/10 04:48:05;;;;;;;7.00;4.82;;;;;;;14.87;78.32;100707.31;5037346;28;20057;-74
2021/06/10 04:50:34;;;;;;;8.77;6.40;;;;;;;14.95;78.39;100707.63;5038633;28;20058;-73
2021/06/10 04:53:02;;;;;;;10.90;6.28;;;;;;;14.96;78.23;100703.09;5038153;28;20057;-73
2021/06/10 04:55:29;;;;;;;9.88;5.97;;;;;;;14.97;78.71;100720.97;5037458;28;20434;-75
2021/06/10 04:57:55;;;;;;;12.55;5.78;;;;;;;14.96;78.85;100712.03;5035429;28;20076;-74
2021/06/10 05:00:22;;;;;;;8.60;5.53;;;;;;;15.07;78.38;100714.81;5034863;28;20053;-73
2021/06/10 05:02:49;;;;;;;8.63;6.00;;;;;;;15.09;78.35;100717.38;5035255;28;20057;-74
2021/06/10 05:05:16;;;;;;;9.70;5.80;;;;;;;15.24;77.99;100719.97;5035745;28;20129;-73
2021/06/10 05:07:43;;;;;;;10.00;5.50;;;;;;;15.27;78.18;100723.28;5035158;28;20107;-74
2021/06/10 05:10:10;;;;;;;12.07;5.65;;;;;;;15.33;77.97;100725.53;5034978;28;20057;-73
2021/06/10 05:12:37;;;;;;;9.82;6.30;;;;;;;15.39;78.13;100726.91;5037628;28;20053;-74
2021/06/10 05:15:05;;;;;;;11.15;5.47;;;;;;;15.45;78.15;100725.59;5037809;28;20073;-73
2021/06/10 05:17:32;;;;;;;10.18;6.40;;;;;;;15.45;77.56;100713.00;5037378;28;20140;-74
2021/06/10 05:19:59;;;;;;;15.02;6.35;;;;;;;15.58;77.90;100725.56;5025984;28;20104;-74
2021/06/10 05:22:27;;;;;;;8.13;6.10;;;;;;;15.63;77.18;100714.47;5018079;28;20111;-77
2021/06/10 05:24:54;;;;;;;12.57;6.90;;;;;;;15.69;78.63;100722.09;5017756;28;20338;-76
2021/06/10 05:27:21;;;;;;;9.70;5.95;;;;;;;15.81;77.76;100717.63;5022616;28;20390;-75
2021/06/10 05:29:49;;;;;;;10.95;6.90;;;;;;;15.86;77.94;100713.59;5025533;28;20077;-74
2021/06/10 05:32:15;;;;;;;10.95;7.25;;;;;;;16.10;76.68;100723.56;5024982;28;20115;-75
2021/06/10 05:34:43;;;;;;;9.60;6.90;;;;;;;16.17;76.55;100720.41;5025706;28;20130;-75
2021/06/10 05:37:09;;;;;;;11.15;6.47;;;;;;;16.23;75.86;100717.25;5028032;28;20049;-76
2021/06/10 05:39:36;;;;;;;13.55;6.85;;;;;;;16.33;75.85;100718.25;5025144;28;20045;-77
2021/06/10 05:42:04;;;;;;;10.27;5.90;;;;;;;16.38;76.00;100707.97;5027439;28;20049;-79
2021/06/10 05:44:31;;;;;;;9.32;6.15;;;;;;;16.25;76.35;100678.41;5025403;28;20045;-78
2021/06/10 05:46:57;;;;;;;7.40;5.85;;;;;;;16.41;75.13;100690.72;5026497;28;20081;-77
2021/06/10 05:49:24;;;;;;;8.27;5.45;;;;;;;16.59;74.94;100712.69;5026295;28;20053;-77
2021/06/10 05:51:51;;;;;;;8.27;5.38;;;;;;;16.64;75.12;100715.88;5025417;28;20390;-77
2021/06/10 05:54:19;;;;;;;10.88;5.00;;;;;;;16.68;74.64;100711.94;5028423;28;20054;-78
2021/06/10 05:56:46;;;;;;;8.07;5.28;;;;;;;16.79;75.25;100716.50;5026033;28;20046;-79
2021/06/10 05:59:14;;;;;;;12.70;5.90;;;;;;;16.85;76.45;100709.78;5027542;28;20119;-77
2021/06/10 06:01:42;;;;;;;8.02;5.57;;;;;;;16.95;77.02;100716.13;5022568;28;20054;-78
2021/06/10 06:04:08;;;;;;;9.52;5.57;;;;;;;17.04;76.98;100717.28;5025435;28;20054;-78
2021/06/10 06:06:35;;;;;;;8.25;5.03;;;;;;;17.07;76.31;100713.50;5025392;28;20050;-75
2021/06/10 06:09:07;;;;;;;8.93;5.57;;;;;;;17.17;75.48;100709.06;5023118;28;20100;-70
2021/06/10 06:11:35;;;;;;;10.73;5.63;;;;;;;17.29;74.65;100719.84;5025791;28;20054;-72
2021/06/10 06:14:09;;;;;;;15.30;5.60;;;;;;;17.38;73.84;100716.44;5026615;28;20432;-74
2021/06/10 06:16:40;;;;;;;9.70;5.10;;;;;;;17.48;73.14;100720.06;5017433;28;20107;-73
2021/06/10 06:19:08;;;;;;;;;;;;;;;17.57;72.57;100715.78;5020905;28;20046;-72
2021/06/10 06:21:35;;;;;;;13.73;5.25;;;;;;;17.66;71.03;100716.88;5036004;28;20380;-73
2021/06/10 06:24:03;;;;;;;12.63;5.03;;;;;;;17.69;69.25;100703.09;5036207;28;20063;-72
2021/06/10 06:26:30;;;;;;;9.48;4.28;;;;;;;17.94;65.93;100706.47;5035442;28;20080;-72
2021/06/10 06:29:02;;;;;;;8.75;4.47;;;;;;;18.05;67.75;100714.53;5035969;28;20107;-73
2021/06/10 06:31:30;;;;;;;8.63;4.72;;;;;;;18.14;67.74;100709.38;5035435;28;20095;-73
2021/06/10 06:33:57;;;;;;;11.70;4.90;;;;;;;18.24;67.15;100718.41;5035165;28;20479;-72
2021/06/10 06:36:25;;;;;;;5.15;3.70;;;;;;;18.37;63.85;100714.66;5036296;28;20107;-73
2021/06/10 06:38:51;;;;;;;4.78;2.97;;;;;;;18.48;61.29;100728.13;5036057;28;20053;-74
2021/06/10 06:41:18;;;;;;;7.07;2.90;;;;;;;18.66;58.40;100713.97;5036028;28;20053;-75
2021/06/10 06:43:45;;;;;;;5.43;2.90;;;;;;;18.71;59.78;100722.56;5035944;28;20493;-73
2021/06/10 06:46:16;;;;;;;7.20;3.47;;;;;;;18.75;64.24;100724.00;5036071;28;20054;-77
2021/06/10 06:48:43;;;;;;;11.75;3.85;;;;;;;18.82;64.70;100727.91;5035957;28;20045;-74
2021/06/10 06:51:10;;;;;;;7.10;3.05;;;;;;;18.86;64.17;100732.03;5034739;28;20049;-74
2021/06/10 06:53:36;;;;;;;6.45;2.75;;;;;;;18.95;59.18;100727.66;5036202;28;20084;-72
2021/06/10 06:56:18;;;;;;;2.78;2.10;;;;;;;19.08;56.87;100723.91;5035962;28;20072;-73
2021/06/10 06:58:45;;;;;;;5.75;2.58;;;;;;;19.11;57.48;100727.22;5034793;28;20049;-73
2021/06/10 07:01:12;;;;;;;9.00;2.85;;;;;;;19.23;56.45;100727.97;5035706;28;20053;-73
2021/06/10 07:03:38;;;;;;;3.63;2.42;;;;;;;19.21;57.23;100721.84;5034652;28;20423;-73
2021/06/10 07:06:05;;;;;;;9.27;2.50;;;;;;;19.30;58.07;100736.41;5034335;28;20046;-74
2021/06/10 07:08:32;;;;;;;6.32;2.95;;;;;;;19.39;58.72;100735.56;5035361;28;20049;-73
2021/06/10 07:11:01;;;;;;;10.30;3.20;;;;;;;19.36;56.36;100719.63;5034978;28;20057;-73
2021/06/10 07:13:28;;;;;;;7.00;3.50;;;;;;;19.52;56.51;100731.78;5035119;28;20057;-74
2021/06/10 07:15:55;;;;;;;5.25;2.17;;;;;;;19.53;56.45;100733.47;5034171;28;20068;-73
2021/06/10 07:18:22;;;;;;;10.23;3.40;;;;;;;19.63;56.49;100737.06;5035306;28;20057;-73
2021/06/10 07:20:49;;;;;;;8.98;3.47;;;;;;;19.67;56.47;100733.06;5034649;28;20112;-73
2021/06/10 07:23:15;;;;;;;7.25;2.95;;;;;;;19.75;54.89;100739.66;5035204;28;20475;-72
2021/06/10 07:25:42;;;;;;;3.17;2.28;;;;;;;19.88;54.15;100740.25;5035170;28;20060;-73
2021/06/10 07:28:09;;;;;;;5.93;2.60;;;;;;;19.93;53.94;100737.97;5034320;28;20065;-73
2021/06/10 07:30:36;;;;;;;5.28;2.47;;;;;;;19.98;53.79;100744.88;5034542;28;20398;-73
2021/06/10 07:33:04;;;;;;;6.93;2.35;;;;;;;20.00;53.47;100749.13;5034006;28;20060;-74
2021/06/10 07:35:33;;;;;;;9.73;3.08;;;;;;;20.16;54.37;100751.28;5035242;28;20099;-73
2021/06/10 07:38:03;;;;;;;8.30;4.00;;;;;;;20.26;55.71;100745.00;5035338;28;20045;-74
2021/06/10 07:40:31;;;;;;;12.57;6.85;;;;;;;20.25;55.52;100736.00;5034565;28;20061;-73
2021/06/10 07:42:59;;;;;;;8.98;6.13;;;;;;;20.36;54.99;100748.56;5035160;28;20061;-73
2021/06/10 07:45:27;;;;;;;14.88;5.70;;;;;;;20.37;55.74;100755.69;5034122;28;20049;-73
2021/06/10 07:47:54;;;;;;;11.45;7.93;;;;;;;20.53;55.96;100754.28;5034329;28;20111;-73
2021/06/10 07:50:22;;;;;;;12.73;8.02;;;;;;;20.59;54.78;100756.41;5035174;28;20107;-73
2021/06/10 07:52:49;;;;;;;10.00;7.30;;;;;;;20.56;55.81;100751.25;5035031;28;20111;-73
2021/06/10 07:55:15;;;;;;;13.05;7.70;;;;;;;20.57;56.38;100753.84;5035241;28;20382;-74
2021/06/10 07:57:42;;;;;;;13.70;7.00;;;;;;;20.69;55.78;100756.41;5034166;28;20049;-73
2021/06/10 08:00:09;;;;;;;13.93;7.00;;;;;;;20.71;55.81;100752.50;5035395;28;20053;-74
2021/06/10 08:02:40;;;;;;;;;;;;;;;20.80;56.96;100753.50;5035681;28;20053;-73
2021/06/10 08:05:07;;;;;;;10.82;7.63;;;;;;;20.90;55.19;100761.63;5034800;28;20385;-73
2021/06/10 08:07:34;;;;;;;11.20;8.20;;;;;;;20.89;55.30;100760.81;5033967;28;20107;-73
2021/06/10 08:10:01;;;;;;;11.88;7.05;;;;;;;20.97;54.27;100757.34;5034887;28;20088;-73
2021/06/10 08:12:28;;;;;;;10.13;7.72;;;;;;;20.98;53.57;100750.91;5034160;28;20119;-73
2021/06/10 08:14:54;;;;;;;12.40;7.68;;;;;;;21.14;53.69;100763.00;5035150;28;20052;-73
2021/06/10 08:17:21;;;;;;;18.13;8.40;;;;;;;21.26;54.37;100766.38;5034947;28;20085;-73
2021/06/10 08:19:48;;;;;;;12.80;7.60;;;;;;;21.40;53.50;100763.19;5024691;28;20049;-73
2021/06/10 08:22:16;;;;;;;12.90;7.90;;;;;;;21.33;54.11;100755.78;5015243;28;20049;-73
2021/06/10 08:24:45;;;;;;;10.15;7.75;;;;;;;21.43;53.41;100773.75;5015349;28;20058;-73
2021/06/10 08:27:11;;;;;;;13.02;6.85;;;;;;;21.49;50.99;100764.13;5014712;28;20069;-73
2021/06/10 08:29:38;;;;;;;7.38;5.18;;;;;;;21.52;51.52;100760.28;5015012;28;20332;-73
2021/06/10 08:32:05;;;;;;;12.82;5.53;;;;;;;21.60;49.89;100757.66;5015022;28;20092;-73
2021/06/10 08:34:32;;;;;;;11.68;5.53;;;;;;;21.69;50.09;100766.78;5015298;28;20045;-73
2021/06/10 08:36:59;;;;;;;8.80;3.53;;;;;;;21.62;50.53;100746.63;5016582;28;20391;-73
2021/06/10 08:39:28;;;;;;;10.13;4.32;;;;;;;21.80;50.09;100763.84;5017207;28;20057;-73
2021/06/10 08:41:55;;;;;;;7.70;3.72;;;;;;;21.87;50.03;100760.50;5018389;28;20324;-73
2021/06/10 08:44:23;;;;;;;6.97;4.20;;;;;;;21.87;48.11;100760.50;5018653;28;20058;-73
2021/06/10 08:46:50;;;;;;;8.32;4.10;;;;;;;21.98;47.14;100769.31;5018552;28;20049;-74
2021/06/10 08:49:18;;;;;;;7.22;3.83;;;;;;;22.05;47.79;100769.53;5018436;28;20053;-73
2021/06/10 08:51:45;;;;;;;9.02;4.03;;;;;;;22.09;48.53;100765.53;5018293;28;20064;-73
2021/06/10 08:54:12;;;;;;;7.20;4.63;;;;;;;22.17;48.76;100775.59;5018441;28;20045;-74
2021/06/10 08:56:41;;;;;;;3.65;2.33;;;;;;;22.07;44.84;100759.38;5018470;28;20042;-73
2021/06/10 08:59:09;;;;;;;8.73;6.25;;;;;;;22.15;50.72;100771.31;5017571;28;20053;-73
2021/06/10 09:01:37;;;;;;;12.15;7.38;;;;;;;22.11;51.41;100766.22;5018327;28;20068;-73
2021/06/10 09:04:04;;;;;;;8.90;6.07;;;;;;;22.25;51.56;100772.97;5018369;28;20053;-73
2021/06/10 09:06:49;;;;;;;7.88;5.80;;;;;;;22.37;50.79;100770.88;5017882;28;20485;-73
2021/06/10 09:09:20;;;;;;;9.73;7.15;;;;;;;22.40;51.45;100780.59;5018339;28;20083;-75
2021/06/10 09:11:48;;;;;;;9.27;6.70;;;;;;;22.51;51.04;100771.34;5018351;28;20058;-77
2021/06/10 09:14:15;;;;;;;10.57;6.13;;;;;;;22.58;50.50;100774.28;5018028;28;20141;-75
2021/06/10 09:16:43;;;;;;;9.32;7.85;;;;;;;22.52;49.22;100776.66;5016803;28;20096;-75
2021/06/10 09:19:19;;;;;;;9.98;6.55;;;;;;;22.50;49.83;100775.91;5022961;28;20343;-75
2021/06/10 09:22:00;;;;;;;13.50;6.60;;;;;;;22.51;49.96;100771.34;5037582;28;20328;-74
2021/06/10 09:24:32;;;;;;;7.65;5.22;;;;;;;22.63;49.08;100771.94;5037814;28;20103;-75
2021/06/10 09:27:06;;;;;;;8.85;4.75;;;;;;;22.76;49.32;100782.41;5035913;28;20045;-74
2021/06/10 09:29:35;;;;;;;13.50;4.88;;;;;;;22.87;49.42;100782.16;5035812;28;20057;-81
2021/06/10 09:32:03;;;;;;;15.45;6.47;;;;;;;22.97;48.78;100781.19;5037129;28;20060;-76
2021/06/10 09:34:52;;;;;;;18.65;5.93;;;;;;;23.07;49.63;100776.50;5037385;28;20357;-76
2021/06/10 09:37:25;;;;;;;10.70;5.55;;;;;;;23.07;47.47;100779.22;5037489;28;20081;-76
2021/06/10 09:39:54;;;;;;;10.55;4.55;;;;;;;23.16;47.92;100775.53;5037246;28;20064;-75
2021/06/10 09:42:28;;;;;;;7.05;4.45;;;;;;;23.16;47.05;100775.53;5037546;28;20136;-70
2021/06/10 09:44:59;;;;;;;9.00;3.78;;;;;;;23.25;48.26;100779.16;5036991;28;20414;-70
2021/06/10 09:47:46;;;;;;;8.88;3.90;;;;;;;23.28;48.37;100776.13;5037291;28;20119;-74
2021/06/10 09:50:26;;;;;;;9.60;4.03;;;;;;;23.41;46.34;100783.00;5035446;28;20127;-69
2021/06/10 09:53:00;;;;;;;9.95;4.10;;;;;;;23.40;46.13;100782.16;5034938;28;20053;-69
2021/06/10 09:55:30;;;;;;;15.05;4.60;;;;;;;23.38;47.29;100783.34;5037269;28;20053;-70
2021/06/10 09:58:06;;;;;;;6.25;4.18;;;;;;;23.40;47.56;100779.44;5036906;28;20084;-70
2021/06/10 10:00:33;;;;;;;8.88;4.07;;;;;;;23.42;47.50;100785.56;5037158;28;20053;-76
2021/06/10 10:02:59;;;;;;;6.65;3.63;;;;;;;23.58;47.97;100778.47;5035907;28;20484;-80
2021/06/10 10:05:26;;;;;;;10.63;5.07;;;;;;;23.70;48.03;100779.88;5037178;28;20103;-77
2021/06/10 10:07:53;;;;;;;9.52;5.38;;;;;;;23.89;48.01;100780.63;5037347;28;20053;-76
2021/06/10 10:10:21;;;;;;;9.23;4.93;;;;;;;23.79;48.12;100779.94;5035983;28;20049;-73
2021/06/10 10:12:50;;;;;;;12.65;4.88;;;;;;;23.89;48.56;100783.34;5037067;28;20116;-76
2021/06/10 10:15:18;;;;;;;11.75;5.65;;;;;;;23.82;47.69;100776.84;5035967;28;20406;-71
2021/06/10 10:17:51;;;;;;;11.48;5.00;;;;;;;24.00;48.89;100779.47;5036399;28;20183;-74
2021/06/10 10:20:18;;;;;;;11.38;5.97;;;;;;;24.06;47.11;100780.66;5023097;28;20053;-78
2021/06/10 10:22:45;;;;;;;10.57;5.82;;;;;;;24.01;47.42;100764.81;5016408;28;20049;-75
2021/06/10 10:25:12;;;;;;;9.48;5.13;;;;;;;24.04;48.39;100780.84;5014508;28;20136;-75
2021/06/10 10:27:39;;;;;;;12.80;4.38;;;;;;;24.16;48.91;100777.81;5015335;28;20116;-75
2021/06/10 10:30:08;;;;;;;7.82;3.55;;;;;;;24.40;47.66;100782.47;5016323;28;20525;-79
2021/06/10 10:32:36;;;;;;;10.80;5.65;;;;;;;24.51;48.01;100779.38;5017095;28;20058;-78
2021/06/10 10:35:21;;;;;;;13.02;6.15;;;;;;;24.66;48.31;100773.22;5016823;28;20348;-75
2021/06/10 10:37:49;;;;;;;17.10;5.72;;;;;;;24.62;47.49;100775.44;5019333;28;20427;-74
2021/06/10 10:40:25;;;;;;;11.20;7.05;;;;;;;24.72;46.06;100772.53;5018864;28;20141;-76
2021/06/10 10:42:52;;;;;;;12.02;6.68;;;;;;;24.86;46.25;100772.88;5016632;28;20053;-77
2021/06/10 10:45:26;;;;;;;8.13;3.80;;;;;;;24.93;44.02;100768.44;5016418;28;20120;-76
2021/06/10 10:48:01;;;;;;;5.78;3.20;;;;;;;24.93;44.28;100771.16;5016568;28;20423;-77
2021/06/10 10:50:41;;;;;;;6.78;2.78;;;;;;;24.98;44.88;100771.50;5016586;28;20054;-75
2021/06/10 10:53:14;;;;;;;8.77;3.03;;;;;;;25.10;45.08;100766.50;5016350;28;20049;-69
2021/06/10 10:55:42;;;;;;;8.35;3.65;;;;;;;25.08;44.51;100763.13;5016501;28;20056;-77
2021/06/10 10:58:17;;;;;;;7.20;3.00;;;;;;;25.15;44.63;100758.66;5016636;28;20054;-77
2021/06/10 11:00:54;;;;;;;4.35;2.65;;;;;;;25.23;44.67;100757.78;5016441;28;20100;-78
2021/06/10 11:03:32;;;;;;;5.60;2.72;;;;;;;25.34;43.61;100746.47;5019106;28;20049;-76
2021/06/10 11:06:22;;;;;;;6.22;2.67;;;;;;;25.39;44.97;100747.81;5022623;28;20129;-77
2021/06/10 11:09:06;;;;;;;6.53;2.20;;;;;;;25.71;43.54;100748.72;5017725;28;20054;-77
2021/06/10 11:11:54;;;;;;;4.40;2.00;;;;;;;26.09;43.66;100743.34;5020091;28;20053;-80
2021/06/10 11:14:36;;;;;;;4.40;2.40;;;;;;;26.36;41.75;100740.28;5023055;28;20101;-79
2021/06/10 11:17:23;;;;;;;10.55;2.30;;;;;;;26.42;41.33;100747.75;5022463;28;20181;-70
2021/06/10 11:19:59;;;;;;;7.40;1.92;;;;;;;26.41;40.82;100738.69;5017956;28;20050;-80
2021/06/10 11:22:30;;;;;;;3.72;2.03;;;;;;;26.51;40.87;100708.31;5032866;28;20093;-78
2021/06/10 11:24:57;;;;;;;5.90;1.77;;;;;;;26.69;41.01;100729.84;5035697;28;20056;-76
2021/06/10 11:27:40;;;;;;;6.82;1.98;;;;;;;26.84;41.25;100723.53;5025720;28;20037;-75
2021/06/10 11:30:22;;;;;;;4.30;1.92;;;;;;;26.91;41.06;100730.00;5029122;28;20058;-81
2021/06/10 11:33:11;;;;;;;7.53;1.98;;;;;;;26.83;40.38;100716.38;5017566;28;20133;-77